sensor_id;sensor_type;location;lat;lon;timestamp;P1;durP1;ratioP1;P2;durP2;ratioP2
16039;SDS011;8124;48.634;8.120;2023-07-29T00:01:07;42.63;;;38.03;;
16039;SDS011;8124;48.634;8.120;2023-07-29T00:06:11;42.75;;;38.15;;
16039;SDS011;8124;48.634;8.120;2023-07-29T00:11:14;45.70;;;37.95;;
16039;SDS011;8124;48.634;8.120;2023-07-29T00:16:17;42.75;;;38.15;;
16039;SDS011;8124;48.634;8.120;2023-07-29T00:21:25;42.75;;;38.10;;
16039;SDS011;8124;48.634;8.120;2023-07-29T00:26:28;42.38;;;37.78;;
16039;SDS011;8124;48.634;8.120;2023-07-29T00:31:32;42.42;;;37.85;;
16039;SDS011;8124;48.634;8.120;2023-07-29T00:36:36;42.53;;;37.92;;
16039;SDS011;8124;48.634;8.120;2023-07-29T00:41:40;42.65;;;38.05;;
16039;SDS011;8124;48.634;8.120;2023-07-29T00:46:42;45.20;;;37.75;;
16039;SDS011;8124;48.634;8.120;2023-07-29T00:51:50;42.97;;;37.85;;
16039;SDS011;8124;48.634;8.120;2023-07-29T00:56:53;42.55;;;37.85;;
16039;SDS011;8124;48.634;8.120;2023-07-29T01:01:57;42.55;;;37.95;;
16039;SDS011;8124;48.634;8.120;2023-07-29T01:07:03;42.75;;;38.15;;
16039;SDS011;8124;48.634;8.120;2023-07-29T01:12:15;42.65;;;38.08;;
16039;SDS011;8124;48.634;8.120;2023-07-29T01:17:25;43.30;;;38.25;;
16039;SDS011;8124;48.634;8.120;2023-07-29T01:22:35;42.72;;;38.13;;
16039;SDS011;8124;48.634;8.120;2023-07-29T01:27:41;42.60;;;38.00;;
16039;SDS011;8124;48.634;8.120;2023-07-29T01:32:47;42.67;;;38.08;;
16039;SDS011;8124;48.634;8.120;2023-07-29T01:37:55;44.25;;;37.97;;
16039;SDS011;8124;48.634;8.120;2023-07-29T01:43:03;43.03;;;38.33;;
16039;SDS011;8124;48.634;8.120;2023-07-29T01:48:08;43.00;;;38.38;;
16039;SDS011;8124;48.634;8.120;2023-07-29T01:53:11;42.90;;;38.20;;
16039;SDS011;8124;48.634;8.120;2023-07-29T01:58:16;44.03;;;38.58;;
16039;SDS011;8124;48.634;8.120;2023-07-29T02:03:21;42.78;;;38.08;;
16039;SDS011;8124;48.634;8.120;2023-07-29T02:08:24;43.10;;;38.50;;
16039;SDS011;8124;48.634;8.120;2023-07-29T02:13:29;43.47;;;38.05;;
16039;SDS011;8124;48.634;8.120;2023-07-29T02:18:32;42.65;;;38.05;;
16039;SDS011;8124;48.634;8.120;2023-07-29T02:23:35;43.00;;;38.33;;
16039;SDS011;8124;48.634;8.120;2023-07-29T02:28:39;42.80;;;38.10;;
16039;SDS011;8124;48.634;8.120;2023-07-29T02:33:42;42.55;;;37.97;;
16039;SDS011;8124;48.634;8.120;2023-07-29T02:38:45;42.63;;;38.03;;
16039;SDS011;8124;48.634;8.120;2023-07-29T02:43:50;42.47;;;37.88;;
16039;SDS011;8124;48.634;8.120;2023-07-29T02:48:53;43.67;;;37.95;;
16039;SDS011;8124;48.634;8.120;2023-07-29T02:53:56;43.22;;;38.38;;
16039;SDS011;8124;48.634;8.120;2023-07-29T02:59:01;43.05;;;38.35;;
16039;SDS011;8124;48.634;8.120;2023-07-29T03:04:04;43.13;;;38.33;;
16039;SDS011;8124;48.634;8.120;2023-07-29T03:09:07;43.28;;;37.95;;
16039;SDS011;8124;48.634;8.120;2023-07-29T03:14:12;43.22;;;38.45;;
16039;SDS011;8124;48.634;8.120;2023-07-29T03:19:15;42.60;;;38.00;;
16039;SDS011;8124;48.634;8.120;2023-07-29T03:24:18;44.15;;;38.65;;
16039;SDS011;8124;48.634;8.120;2023-07-29T03:29:23;42.72;;;38.00;;
16039;SDS011;8124;48.634;8.120;2023-07-29T03:34:26;43.55;;;38.15;;
16039;SDS011;8124;48.634;8.120;2023-07-29T03:39:29;43.28;;;38.45;;
16039;SDS011;8124;48.634;8.120;2023-07-29T03:44:33;44.03;;;38.75;;
16039;SDS011;8124;48.634;8.120;2023-07-29T03:49:37;44.13;;;38.38;;
16039;SDS011;8124;48.634;8.120;2023-07-29T03:54:40;42.70;;;38.10;;
16039;SDS011;8124;48.634;8.120;2023-07-29T03:59:45;42.70;;;38.10;;
16039;SDS011;8124;48.634;8.120;2023-07-29T04:04:48;42.83;;;37.92;;
16039;SDS011;8124;48.634;8.120;2023-07-29T04:09:51;42.42;;;37.83;;
16039;SDS011;8124;48.634;8.120;2023-07-29T04:14:55;46.47;;;37.92;;
16039;SDS011;8124;48.634;8.120;2023-07-29T04:19:58;42.45;;;37.88;;
16039;SDS011;8124;48.634;8.120;2023-07-29T04:25:07;45.08;;;37.67;;
16039;SDS011;8124;48.634;8.120;2023-07-29T04:30:12;43.78;;;38.00;;
16039;SDS011;8124;48.634;8.120;2023-07-29T04:35:15;43.03;;;37.88;;
16039;SDS011;8124;48.634;8.120;2023-07-29T04:40:18;42.58;;;37.97;;
16039;SDS011;8124;48.634;8.120;2023-07-29T04:45:23;42.83;;;38.22;;
16039;SDS011;8124;48.634;8.120;2023-07-29T04:50:30;43.80;;;38.35;;
16039;SDS011;8124;48.634;8.120;2023-07-29T04:55:33;49.03;;;39.13;;
16039;SDS011;8124;48.634;8.120;2023-07-29T05:00:37;43.33;;;38.63;;
16039;SDS011;8124;48.634;8.120;2023-07-29T05:05:40;43.13;;;38.42;;
16039;SDS011;8124;48.634;8.120;2023-07-29T05:10:43;43.15;;;38.45;;
16039;SDS011;8124;48.634;8.120;2023-07-29T05:15:48;43.28;;;38.58;;
16039;SDS011;8124;48.634;8.120;2023-07-29T05:20:51;47.97;;;38.53;;
16039;SDS011;8124;48.634;8.120;2023-07-29T05:25:54;42.50;;;37.90;;
16039;SDS011;8124;48.634;8.120;2023-07-29T05:31:01;42.60;;;38.00;;
16039;SDS011;8124;48.634;8.120;2023-07-29T05:36:04;43.05;;;38.40;;
16039;SDS011;8124;48.634;8.120;2023-07-29T05:41:08;43.13;;;38.42;;
16039;SDS011;8124;48.634;8.120;2023-07-29T05:46:12;43.15;;;38.50;;
16039;SDS011;8124;48.634;8.120;2023-07-29T05:51:15;42.92;;;38.33;;
16039;SDS011;8124;48.634;8.120;2023-07-29T05:56:18;43.35;;;38.65;;
16039;SDS011;8124;48.634;8.120;2023-07-29T06:01:22;43.03;;;38.33;;
16039;SDS011;8124;48.634;8.120;2023-07-29T06:06:26;42.90;;;38.28;;
16039;SDS011;8124;48.634;8.120;2023-07-29T06:11:30;43.13;;;38.45;;
16039;SDS011;8124;48.634;8.120;2023-07-29T06:16:34;42.63;;;38.03;;
16039;SDS011;8124;48.634;8.120;2023-07-29T06:21:37;43.28;;;38.58;;
16039;SDS011;8124;48.634;8.120;2023-07-29T06:26:40;43.60;;;38.58;;
16039;SDS011;8124;48.634;8.120;2023-07-29T06:31:45;43.70;;;38.72;;
16039;SDS011;8124;48.634;8.120;2023-07-29T06:36:48;42.88;;;38.13;;
16039;SDS011;8124;48.634;8.120;2023-07-29T06:41:51;42.95;;;37.80;;
16039;SDS011;8124;48.634;8.120;2023-07-29T06:46:55;43.28;;;38.55;;
16039;SDS011;8124;48.634;8.120;2023-07-29T06:52:00;42.60;;;38.00;;
16039;SDS011;8124;48.634;8.120;2023-07-29T06:57:03;43.10;;;38.45;;
16039;SDS011;8124;48.634;8.120;2023-07-29T07:02:09;43.88;;;38.17;;
16039;SDS011;8124;48.634;8.120;2023-07-29T07:07:11;43.28;;;38.65;;
16039;SDS011;8124;48.634;8.120;2023-07-29T07:12:14;42.88;;;38.28;;
16039;SDS011;8124;48.634;8.120;2023-07-29T07:17:19;42.45;;;37.85;;
16039;SDS011;8124;48.634;8.120;2023-07-29T07:22:22;43.58;;;38.95;;
16039;SDS011;8124;48.634;8.120;2023-07-29T07:27:25;42.90;;;38.22;;
16039;SDS011;8124;48.634;8.120;2023-07-29T07:32:30;43.35;;;38.30;;
16039;SDS011;8124;48.634;8.120;2023-07-29T07:37:33;43.50;;;38.05;;
16039;SDS011;8124;48.634;8.120;2023-07-29T07:42:36;43.05;;;38.35;;
16039;SDS011;8124;48.634;8.120;2023-07-29T07:47:40;43.95;;;38.40;;
16039;SDS011;8124;48.634;8.120;2023-07-29T07:52:43;42.92;;;38.33;;
16039;SDS011;8124;48.634;8.120;2023-07-29T07:57:46;43.08;;;38.38;;
16039;SDS011;8124;48.634;8.120;2023-07-29T08:02:50;43.58;;;38.88;;
16039;SDS011;8124;48.634;8.120;2023-07-29T08:07:53;43.20;;;38.55;;
16039;SDS011;8124;48.634;8.120;2023-07-29T08:12:56;43.65;;;38.88;;
16039;SDS011;8124;48.634;8.120;2023-07-29T08:18:02;43.75;;;39.05;;
16039;SDS011;8124;48.634;8.120;2023-07-29T08:23:05;43.40;;;38.42;;
16039;SDS011;8124;48.634;8.120;2023-07-29T08:28:08;43.80;;;39.05;;
16039;SDS011;8124;48.634;8.120;2023-07-29T08:33:14;43.55;;;38.88;;
16039;SDS011;8124;48.634;8.120;2023-07-29T08:38:17;43.78;;;39.03;;
16039;SDS011;8124;48.634;8.120;2023-07-29T08:43:20;43.58;;;38.90;;
16039;SDS011;8124;48.634;8.120;2023-07-29T08:48:35;43.40;;;38.70;;
16039;SDS011;8124;48.634;8.120;2023-07-29T08:53:43;43.35;;;38.75;;
16039;SDS011;8124;48.634;8.120;2023-07-29T08:58:46;43.15;;;38.45;;
16039;SDS011;8124;48.634;8.120;2023-07-29T09:03:50;43.28;;;38.58;;
16039;SDS011;8124;48.634;8.120;2023-07-29T09:08:54;43.72;;;38.92;;
16039;SDS011;8124;48.634;8.120;2023-07-29T09:13:58;43.60;;;38.90;;
16039;SDS011;8124;48.634;8.120;2023-07-29T09:19:02;43.83;;;39.13;;
16039;SDS011;8124;48.634;8.120;2023-07-29T09:24:06;43.25;;;38.60;;
16039;SDS011;8124;48.634;8.120;2023-07-29T09:29:10;43.38;;;38.78;;
16039;SDS011;8124;48.634;8.120;2023-07-29T09:34:15;43.88;;;39.03;;
16039;SDS011;8124;48.634;8.120;2023-07-29T09:39:18;44.25;;;39.45;;
16039;SDS011;8124;48.634;8.120;2023-07-29T09:44:26;44.33;;;39.45;;
16039;SDS011;8124;48.634;8.120;2023-07-29T09:49:30;44.45;;;39.65;;
16039;SDS011;8124;48.634;8.120;2023-07-29T09:54:37;44.20;;;39.50;;
16039;SDS011;8124;48.634;8.120;2023-07-29T09:59:41;44.03;;;39.33;;
16039;SDS011;8124;48.634;8.120;2023-07-29T10:04:45;44.10;;;39.35;;
16039;SDS011;8124;48.634;8.120;2023-07-29T10:09:49;44.13;;;39.33;;
16039;SDS011;8124;48.634;8.120;2023-07-29T10:14:55;44.30;;;39.50;;
16039;SDS011;8124;48.634;8.120;2023-07-29T10:20:01;44.55;;;39.67;;
16039;SDS011;8124;48.634;8.120;2023-07-29T10:25:07;44.88;;;40.05;;
16039;SDS011;8124;48.634;8.120;2023-07-29T10:30:12;44.65;;;39.88;;
16039;SDS011;8124;48.634;8.120;2023-07-29T10:35:17;44.42;;;39.70;;
16039;SDS011;8124;48.634;8.120;2023-07-29T10:40:21;43.85;;;39.15;;
16039;SDS011;8124;48.634;8.120;2023-07-29T10:45:24;43.80;;;39.10;;
16039;SDS011;8124;48.634;8.120;2023-07-29T10:50:28;44.47;;;39.67;;
16039;SDS011;8124;48.634;8.120;2023-07-29T10:55:32;44.10;;;39.38;;
16039;SDS011;8124;48.634;8.120;2023-07-29T11:00:38;43.75;;;39.08;;
16039;SDS011;8124;48.634;8.120;2023-07-29T11:05:54;44.30;;;39.60;;
16039;SDS011;8124;48.634;8.120;2023-07-29T11:11:00;43.72;;;39.05;;
16039;SDS011;8124;48.634;8.120;2023-07-29T11:16:06;44.13;;;39.42;;
16039;SDS011;8124;48.634;8.120;2023-07-29T11:21:11;44.30;;;39.53;;
16039;SDS011;8124;48.634;8.120;2023-07-29T11:26:16;44.53;;;39.67;;
16039;SDS011;8124;48.634;8.120;2023-07-29T11:31:19;44.53;;;39.75;;
16039;SDS011;8124;48.634;8.120;2023-07-29T11:36:24;45.22;;;40.42;;
16039;SDS011;8124;48.634;8.120;2023-07-29T11:41:27;44.67;;;39.88;;
16039;SDS011;8124;48.634;8.120;2023-07-29T11:46:30;44.20;;;39.50;;
16039;SDS011;8124;48.634;8.120;2023-07-29T11:51:34;44.60;;;39.85;;
16039;SDS011;8124;48.634;8.120;2023-07-29T11:56:38;44.47;;;39.75;;
16039;SDS011;8124;48.634;8.120;2023-07-29T12:01:41;44.60;;;39.70;;
16039;SDS011;8124;48.634;8.120;2023-07-29T12:06:46;45.05;;;40.20;;
16039;SDS011;8124;48.634;8.120;2023-07-29T12:11:49;58.88;;;43.25;;
16039;SDS011;8124;48.634;8.120;2023-07-29T12:16:53;44.85;;;40.05;;
16039;SDS011;8124;48.634;8.120;2023-07-29T12:21:58;45.30;;;40.38;;
16039;SDS011;8124;48.634;8.120;2023-07-29T12:27:01;44.50;;;39.72;;
16039;SDS011;8124;48.634;8.120;2023-07-29T12:32:05;45.83;;;40.22;;
16039;SDS011;8124;48.634;8.120;2023-07-29T12:37:09;45.25;;;40.35;;
16039;SDS011;8124;48.634;8.120;2023-07-29T12:42:12;44.95;;;40.15;;
16039;SDS011;8124;48.634;8.120;2023-07-29T12:47:16;45.35;;;40.55;;
16039;SDS011;8124;48.634;8.120;2023-07-29T12:52:20;45.88;;;40.85;;
16039;SDS011;8124;48.634;8.120;2023-07-29T12:57:23;45.05;;;40.17;;
16039;SDS011;8124;48.634;8.120;2023-07-29T13:02:26;45.03;;;40.22;;
16039;SDS011;8124;48.634;8.120;2023-07-29T13:07:30;45.17;;;40.28;;
16039;SDS011;8124;48.634;8.120;2023-07-29T13:12:33;45.70;;;40.38;;
16039;SDS011;8124;48.634;8.120;2023-07-29T13:17:36;45.15;;;40.35;;
16039;SDS011;8124;48.634;8.120;2023-07-29T13:22:42;45.05;;;40.28;;
16039;SDS011;8124;48.634;8.120;2023-07-29T13:27:45;45.20;;;40.35;;
16039;SDS011;8124;48.634;8.120;2023-07-29T13:32:48;45.13;;;40.13;;
16039;SDS011;8124;48.634;8.120;2023-07-29T13:37:52;45.55;;;40.65;;
16039;SDS011;8124;48.634;8.120;2023-07-29T13:42:56;45.08;;;40.28;;
16039;SDS011;8124;48.634;8.120;2023-07-29T13:47:59;45.35;;;40.55;;
16039;SDS011;8124;48.634;8.120;2023-07-29T13:53:03;45.28;;;40.38;;
16039;SDS011;8124;48.634;8.120;2023-07-29T13:58:06;45.58;;;40.55;;
16039;SDS011;8124;48.634;8.120;2023-07-29T14:03:09;45.28;;;40.38;;
16039;SDS011;8124;48.634;8.120;2023-07-29T14:08:14;45.33;;;40.53;;
16039;SDS011;8124;48.634;8.120;2023-07-29T14:13:17;45.55;;;40.65;;
16039;SDS011;8124;48.634;8.120;2023-07-29T14:18:20;46.03;;;41.13;;
16039;SDS011;8124;48.634;8.120;2023-07-29T14:23:24;45.85;;;40.95;;
16039;SDS011;8124;48.634;8.120;2023-07-29T14:28:27;45.33;;;40.45;;
16039;SDS011;8124;48.634;8.120;2023-07-29T14:33:31;45.55;;;40.65;;
16039;SDS011;8124;48.634;8.120;2023-07-29T14:38:35;46.22;;;41.30;;
16039;SDS011;8124;48.634;8.120;2023-07-29T14:43:38;45.42;;;40.63;;
16039;SDS011;8124;48.634;8.120;2023-07-29T14:48:41;45.65;;;40.72;;
16039;SDS011;8124;48.634;8.120;2023-07-29T14:53:46;45.65;;;40.72;;
16039;SDS011;8124;48.634;8.120;2023-07-29T14:58:49;45.13;;;40.33;;
16039;SDS011;8124;48.634;8.120;2023-07-29T15:03:52;45.45;;;40.65;;
16039;SDS011;8124;48.634;8.120;2023-07-29T15:08:57;46.00;;;40.60;;
16039;SDS011;8124;48.634;8.120;2023-07-29T15:14:00;45.53;;;40.70;;
16039;SDS011;8124;48.634;8.120;2023-07-29T15:19:05;45.53;;;40.72;;
16039;SDS011;8124;48.634;8.120;2023-07-29T15:24:09;45.38;;;40.55;;
16039;SDS011;8124;48.634;8.120;2023-07-29T15:29:12;45.38;;;40.58;;
16039;SDS011;8124;48.634;8.120;2023-07-29T15:34:16;45.35;;;40.55;;
16039;SDS011;8124;48.634;8.120;2023-07-29T15:39:20;45.63;;;40.75;;
16039;SDS011;8124;48.634;8.120;2023-07-29T15:44:23;45.65;;;40.75;;
16039;SDS011;8124;48.634;8.120;2023-07-29T15:49:26;45.30;;;40.47;;
16039;SDS011;8124;48.634;8.120;2023-07-29T15:54:30;45.55;;;40.75;;
16039;SDS011;8124;48.634;8.120;2023-07-29T15:59:33;45.45;;;40.65;;
16039;SDS011;8124;48.634;8.120;2023-07-29T16:04:39;46.38;;;41.38;;
16039;SDS011;8124;48.634;8.120;2023-07-29T16:09:44;45.25;;;40.38;;
16039;SDS011;8124;48.634;8.120;2023-07-29T16:14:47;45.75;;;40.65;;
16039;SDS011;8124;48.634;8.120;2023-07-29T16:19:52;45.42;;;40.55;;
16039;SDS011;8124;48.634;8.120;2023-07-29T16:24:58;45.45;;;40.60;;
16039;SDS011;8124;48.634;8.120;2023-07-29T16:30:01;45.50;;;40.50;;
16039;SDS011;8124;48.634;8.120;2023-07-29T16:35:05;45.20;;;40.30;;
16039;SDS011;8124;48.634;8.120;2023-07-29T16:40:11;45.20;;;40.30;;
16039;SDS011;8124;48.634;8.120;2023-07-29T16:45:14;45.85;;;40.85;;
16039;SDS011;8124;48.634;8.120;2023-07-29T16:50:17;45.53;;;40.65;;
16039;SDS011;8124;48.634;8.120;2023-07-29T16:55:22;45.88;;;40.88;;
16039;SDS011;8124;48.634;8.120;2023-07-29T17:00:25;46.65;;;41.75;;
16039;SDS011;8124;48.634;8.120;2023-07-29T17:05:28;44.90;;;40.10;;
16039;SDS011;8124;48.634;8.120;2023-07-29T17:10:33;45.25;;;40.45;;
16039;SDS011;8124;48.634;8.120;2023-07-29T17:15:37;45.80;;;40.97;;
16039;SDS011;8124;48.634;8.120;2023-07-29T17:20:40;44.58;;;39.78;;
16039;SDS011;8124;48.634;8.120;2023-07-29T17:25:45;45.33;;;40.53;;
16039;SDS011;8124;48.634;8.120;2023-07-29T17:30:48;44.97;;;40.17;;
16039;SDS011;8124;48.634;8.120;2023-07-29T17:35:53;45.08;;;40.28;;
16039;SDS011;8124;48.634;8.120;2023-07-29T17:40:58;44.88;;;40.03;;
16039;SDS011;8124;48.634;8.120;2023-07-29T17:46:04;44.55;;;39.78;;
16039;SDS011;8124;48.634;8.120;2023-07-29T17:51:08;44.72;;;39.90;;
16039;SDS011;8124;48.634;8.120;2023-07-29T17:56:20;45.00;;;40.20;;
16039;SDS011;8124;48.634;8.120;2023-07-29T18:01:45;44.85;;;40.00;;
16039;SDS011;8124;48.634;8.120;2023-07-29T18:07:17;45.90;;;41.00;;
16039;SDS011;8124;48.634;8.120;2023-07-29T18:12:25;45.03;;;40.20;;
16039;SDS011;8124;48.634;8.120;2023-07-29T18:17:28;45.47;;;40.58;;
16039;SDS011;8124;48.634;8.120;2023-07-29T18:22:32;45.80;;;40.83;;
16039;SDS011;8124;48.634;8.120;2023-07-29T18:27:46;45.05;;;40.22;;
16039;SDS011;8124;48.634;8.120;2023-07-29T18:33:13;45.63;;;40.72;;
16039;SDS011;8124;48.634;8.120;2023-07-29T18:38:17;46.30;;;41.30;;
16039;SDS011;8124;48.634;8.120;2023-07-29T18:43:21;46.67;;;40.83;;
16039;SDS011;8124;48.634;8.120;2023-07-29T18:48:25;45.15;;;40.25;;
16039;SDS011;8124;48.634;8.120;2023-07-29T18:53:28;45.67;;;40.78;;
16039;SDS011;8124;48.634;8.120;2023-07-29T18:58:37;45.15;;;40.33;;
16039;SDS011;8124;48.634;8.120;2023-07-29T19:03:41;47.58;;;41.35;;
16039;SDS011;8124;48.634;8.120;2023-07-29T19:08:47;45.42;;;40.53;;
16039;SDS011;8124;48.634;8.120;2023-07-29T19:13:52;45.00;;;40.20;;
16039;SDS011;8124;48.634;8.120;2023-07-29T19:18:55;45.03;;;40.20;;
16039;SDS011;8124;48.634;8.120;2023-07-29T19:24:01;45.75;;;40.85;;
16039;SDS011;8124;48.634;8.120;2023-07-29T19:29:06;46.20;;;41.25;;
16039;SDS011;8124;48.634;8.120;2023-07-29T19:34:09;44.97;;;40.13;;
16039;SDS011;8124;48.634;8.120;2023-07-29T19:39:12;45.25;;;40.40;;
16039;SDS011;8124;48.634;8.120;2023-07-29T19:44:17;44.70;;;39.88;;
16039;SDS011;8124;48.634;8.120;2023-07-29T19:49:23;44.45;;;39.65;;
16039;SDS011;8124;48.634;8.120;2023-07-29T19:54:26;45.00;;;40.13;;
16039;SDS011;8124;48.634;8.120;2023-07-29T19:59:32;44.92;;;40.03;;
16039;SDS011;8124;48.634;8.120;2023-07-29T20:04:49;44.63;;;39.78;;
16039;SDS011;8124;48.634;8.120;2023-07-29T20:09:52;45.22;;;40.33;;
16039;SDS011;8124;48.634;8.120;2023-07-29T20:14:56;44.88;;;40.08;;
16039;SDS011;8124;48.634;8.120;2023-07-29T20:20:02;44.88;;;40.08;;
16039;SDS011;8124;48.634;8.120;2023-07-29T20:25:06;44.85;;;40.00;;
16039;SDS011;8124;48.634;8.120;2023-07-29T20:30:11;44.70;;;39.78;;
16039;SDS011;8124;48.634;8.120;2023-07-29T20:35:14;45.78;;;40.88;;
16039;SDS011;8124;48.634;8.120;2023-07-29T20:40:17;44.88;;;40.00;;
16039;SDS011;8124;48.634;8.120;2023-07-29T20:45:21;45.28;;;40.38;;
16039;SDS011;8124;48.634;8.120;2023-07-29T20:50:24;48.15;;;40.17;;
16039;SDS011;8124;48.634;8.120;2023-07-29T20:55:27;45.08;;;40.25;;
16039;SDS011;8124;48.634;8.120;2023-07-29T21:00:32;44.78;;;39.97;;
16039;SDS011;8124;48.634;8.120;2023-07-29T21:05:35;45.05;;;39.80;;
16039;SDS011;8124;48.634;8.120;2023-07-29T21:10:38;44.50;;;39.67;;
16039;SDS011;8124;48.634;8.120;2023-07-29T21:15:49;45.38;;;40.40;;
16039;SDS011;8124;48.634;8.120;2023-07-29T21:20:52;45.30;;;39.75;;
16039;SDS011;8124;48.634;8.120;2023-07-29T21:25:55;45.00;;;40.13;;
16039;SDS011;8124;48.634;8.120;2023-07-29T21:31:01;45.28;;;40.05;;
16039;SDS011;8124;48.634;8.120;2023-07-29T21:36:04;44.58;;;39.78;;
16039;SDS011;8124;48.634;8.120;2023-07-29T21:41:07;45.08;;;39.97;;
16039;SDS011;8124;48.634;8.120;2023-07-29T21:46:11;45.50;;;40.15;;
16039;SDS011;8124;48.634;8.120;2023-07-29T21:51:14;45.08;;;40.08;;
16039;SDS011;8124;48.634;8.120;2023-07-29T21:56:17;44.47;;;39.63;;
16039;SDS011;8124;48.634;8.120;2023-07-29T22:01:22;45.08;;;40.22;;
16039;SDS011;8124;48.634;8.120;2023-07-29T22:06:25;44.83;;;40.03;;
16039;SDS011;8124;48.634;8.120;2023-07-29T22:11:28;46.25;;;39.67;;
16039;SDS011;8124;48.634;8.120;2023-07-29T22:16:33;46.88;;;40.08;;
16039;SDS011;8124;48.634;8.120;2023-07-29T22:21:36;44.47;;;39.67;;
16039;SDS011;8124;48.634;8.120;2023-07-29T22:26:39;45.22;;;39.88;;
16039;SDS011;8124;48.634;8.120;2023-07-29T22:31:44;44.45;;;39.63;;
16039;SDS011;8124;48.634;8.120;2023-07-29T22:36:47;44.60;;;39.80;;
16039;SDS011;8124;48.634;8.120;2023-07-29T22:41:50;44.10;;;39.33;;
16039;SDS011;8124;48.634;8.120;2023-07-29T22:46:55;46.63;;;39.88;;
16039;SDS011;8124;48.634;8.120;2023-07-29T22:51:58;44.53;;;39.67;;
16039;SDS011;8124;48.634;8.120;2023-07-29T22:57:01;44.42;;;39.53;;
16039;SDS011;8124;48.634;8.120;2023-07-29T23:02:06;46.45;;;40.15;;
16039;SDS011;8124;48.634;8.120;2023-07-29T23:07:09;43.88;;;39.15;;
16039;SDS011;8124;48.634;8.120;2023-07-29T23:12:12;43.78;;;39.08;;
16039;SDS011;8124;48.634;8.120;2023-07-29T23:17:16;44.47;;;39.58;;
16039;SDS011;8124;48.634;8.120;2023-07-29T23:22:19;45.97;;;39.83;;
16039;SDS011;8124;48.634;8.120;2023-07-29T23:27:22;43.88;;;39.08;;
16039;SDS011;8124;48.634;8.120;2023-07-29T23:32:27;44.42;;;39.53;;
16039;SDS011;8124;48.634;8.120;2023-07-29T23:37:30;43.65;;;38.95;;
16039;SDS011;8124;48.634;8.120;2023-07-29T23:42:33;44.10;;;39.30;;
16039;SDS011;8124;48.634;8.120;2023-07-29T23:47:37;43.58;;;38.85;;
16039;SDS011;8124;48.634;8.120;2023-07-29T23:52:40;43.85;;;39.05;;
16039;SDS011;8124;48.634;8.120;2023-07-29T23:57:43;44.20;;;39.42;;
